Hauptseite
METAR-TAF:

METAR-TAF

Flughäfen :

Flughafen Limoges

Limoges, Frankreich

Breite: 45-52N, Länge: 001-11E, Höhe: 396 m

Beobachtung

Neuester Wetterbericht von vor 27 Minuten, um 05:30 UTC
Wind 10 kt aus Ost/Nordost, variierte zwischen Nord/Nordost und Ost
Temperatur 1°C
Luftfeuchtigkeit 80%
Luftdruck 1008 hPa
Sichtweite 10 km oder mehr
keine Wolken unter 1500 m und keine Kumulonimbus oder Gewitterwolken

METAR: LFBL 190530Z AUTO 06010KT 030V090 CAVOK 01/M02 Q1008 NOSIG

Zeit: 06:57 (05:57 UTC)

Prognose

Neuester Wetterbericht von vor 57 Minuten, um 05:00 UTC
Gültige Prognose vom 19 um 06 UTC bis 20 um 06 UTC
Wind 8 kt aus Nordost
Sichtweite 10 km oder mehr
keine Wolken unter 1500 m und keine Kumulonimbus oder Gewitterwolken

TAF: LFBL 190500Z 1906/2006 05008KT CAVOK

Wetterbeobachtungen und Prognosen von mehr als 4000 Flughäfen (METAR und TAF Bericht).

Die verfügbaren Stationen werden durch gelbe und rote Markierungen auf der Karte dargestellt.

Führen Sie die Maus auf sie, um den Namen der Station zu sehen.

Darauf klicken, um die Beobachtung von Wetterbeobachtungen und Prognosen zu sehen.

Um die Karte zu ändern : klicken Sie auf den grünen Tasten mit einem schwarzen Kreuz Zum Vergrößern, auf den grünen Button mit einem Gedankenstrich zu verkleinern, oder auf die grünen Pfeile für benachbarte Karten.


METAR-TAF: